sensor_id;sensor_type;location;lat;lon;timestamp;P1;durP1;ratioP1;P2;durP2;ratioP2
15451;SDS011;7827;53.594;9.938;2023-03-11T00:00:46;30.23;;;19.90;;
15451;SDS011;7827;53.594;9.938;2023-03-11T00:03:16;31.07;;;20.87;;
15451;SDS011;7827;53.594;9.938;2023-03-11T00:05:48;31.67;;;19.93;;
15451;SDS011;7827;53.594;9.938;2023-03-11T00:08:19;31.10;;;20.73;;
15451;SDS011;7827;53.594;9.938;2023-03-11T00:10:51;36.27;;;22.07;;
15451;SDS011;7827;53.594;9.938;2023-03-11T00:13:24;32.47;;;21.67;;
15451;SDS011;7827;53.594;9.938;2023-03-11T00:15:54;31.20;;;20.30;;
15451;SDS011;7827;53.594;9.938;2023-03-11T00:18:25;35.50;;;22.33;;
15451;SDS011;7827;53.594;9.938;2023-03-11T00:20:58;35.57;;;21.90;;
15451;SDS011;7827;53.594;9.938;2023-03-11T00:23:27;34.33;;;21.73;;
15451;SDS011;7827;53.594;9.938;2023-03-11T00:25:56;34.90;;;22.00;;
15451;SDS011;7827;53.594;9.938;2023-03-11T00:28:25;36.37;;;21.23;;
15451;SDS011;7827;53.594;9.938;2023-03-11T00:30:53;37.43;;;23.17;;
15451;SDS011;7827;53.594;9.938;2023-03-11T00:33:22;36.80;;;22.73;;
15451;SDS011;7827;53.594;9.938;2023-03-11T00:35:50;36.20;;;24.00;;
15451;SDS011;7827;53.594;9.938;2023-03-11T00:38:20;35.53;;;22.93;;
15451;SDS011;7827;53.594;9.938;2023-03-11T00:40:48;40.83;;;22.57;;
15451;SDS011;7827;53.594;9.938;2023-03-11T00:43:17;37.83;;;23.47;;
15451;SDS011;7827;53.594;9.938;2023-03-11T00:45:45;39.60;;;24.33;;
15451;SDS011;7827;53.594;9.938;2023-03-11T00:48:14;38.67;;;24.60;;
15451;SDS011;7827;53.594;9.938;2023-03-11T00:50:42;37.47;;;24.00;;
15451;SDS011;7827;53.594;9.938;2023-03-11T00:53:11;40.03;;;24.43;;
15451;SDS011;7827;53.594;9.938;2023-03-11T00:55:40;39.37;;;23.67;;
15451;SDS011;7827;53.594;9.938;2023-03-11T00:58:11;37.13;;;23.53;;
15451;SDS011;7827;53.594;9.938;2023-03-11T01:00:44;39.50;;;24.80;;
15451;SDS011;7827;53.594;9.938;2023-03-11T01:03:12;38.67;;;24.27;;
15451;SDS011;7827;53.594;9.938;2023-03-11T01:05:40;42.53;;;24.17;;
15451;SDS011;7827;53.594;9.938;2023-03-11T01:08:09;42.10;;;24.27;;
15451;SDS011;7827;53.594;9.938;2023-03-11T01:10:37;37.23;;;23.60;;
15451;SDS011;7827;53.594;9.938;2023-03-11T01:13:07;37.57;;;23.63;;
15451;SDS011;7827;53.594;9.938;2023-03-11T01:15:35;39.90;;;25.17;;
15451;SDS011;7827;53.594;9.938;2023-03-11T01:18:05;36.53;;;23.93;;
15451;SDS011;7827;53.594;9.938;2023-03-11T01:20:34;38.77;;;23.87;;
15451;SDS011;7827;53.594;9.938;2023-03-11T01:23:03;34.93;;;22.40;;
15451;SDS011;7827;53.594;9.938;2023-03-11T01:25:33;34.80;;;22.50;;
15451;SDS011;7827;53.594;9.938;2023-03-11T01:28:02;38.50;;;23.60;;
15451;SDS011;7827;53.594;9.938;2023-03-11T01:30:33;38.23;;;23.03;;
15451;SDS011;7827;53.594;9.938;2023-03-11T01:33:04;35.37;;;22.10;;
15451;SDS011;7827;53.594;9.938;2023-03-11T01:35:34;33.53;;;21.57;;
15451;SDS011;7827;53.594;9.938;2023-03-11T01:38:05;34.90;;;22.17;;
15451;SDS011;7827;53.594;9.938;2023-03-11T01:40:34;34.13;;;21.70;;
15451;SDS011;7827;53.594;9.938;2023-03-11T01:46:18;37.23;;;23.13;;
15451;SDS011;7827;53.594;9.938;2023-03-11T01:48:50;34.13;;;22.43;;
15451;SDS011;7827;53.594;9.938;2023-03-11T01:51:23;37.13;;;22.83;;
15451;SDS011;7827;53.594;9.938;2023-03-11T01:53:56;33.73;;;21.17;;
15451;SDS011;7827;53.594;9.938;2023-03-11T01:56:31;33.27;;;22.07;;
15451;SDS011;7827;53.594;9.938;2023-03-11T01:59:00;31.37;;;21.10;;
15451;SDS011;7827;53.594;9.938;2023-03-11T02:01:31;35.67;;;21.97;;
15451;SDS011;7827;53.594;9.938;2023-03-11T02:04:02;32.57;;;22.00;;
15451;SDS011;7827;53.594;9.938;2023-03-11T02:06:30;33.50;;;22.50;;
15451;SDS011;7827;53.594;9.938;2023-03-11T02:09:00;36.57;;;21.90;;
15451;SDS011;7827;53.594;9.938;2023-03-11T02:11:29;32.93;;;21.47;;
15451;SDS011;7827;53.594;9.938;2023-03-11T02:14:01;33.67;;;20.30;;
15451;SDS011;7827;53.594;9.938;2023-03-11T02:16:35;29.57;;;19.77;;
15451;SDS011;7827;53.594;9.938;2023-03-11T02:19:08;31.07;;;21.27;;
15451;SDS011;7827;53.594;9.938;2023-03-11T02:21:53;33.77;;;20.43;;
15451;SDS011;7827;53.594;9.938;2023-03-11T02:24:25;33.67;;;21.33;;
15451;SDS011;7827;53.594;9.938;2023-03-11T02:27:06;35.87;;;22.87;;
15451;SDS011;7827;53.594;9.938;2023-03-11T02:29:36;32.23;;;21.53;;
15451;SDS011;7827;53.594;9.938;2023-03-11T02:32:07;35.33;;;20.97;;
15451;SDS011;7827;53.594;9.938;2023-03-11T02:34:41;36.43;;;21.27;;
15451;SDS011;7827;53.594;9.938;2023-03-11T02:37:11;33.67;;;19.70;;
15451;SDS011;7827;53.594;9.938;2023-03-11T02:39:49;32.07;;;21.37;;
15451;SDS011;7827;53.594;9.938;2023-03-11T02:42:24;35.90;;;21.23;;
15451;SDS011;7827;53.594;9.938;2023-03-11T02:44:57;32.17;;;20.23;;
15451;SDS011;7827;53.594;9.938;2023-03-11T02:47:32;30.93;;;20.37;;
15451;SDS011;7827;53.594;9.938;2023-03-11T02:50:06;32.30;;;21.30;;
15451;SDS011;7827;53.594;9.938;2023-03-11T02:52:40;31.43;;;20.73;;
15451;SDS011;7827;53.594;9.938;2023-03-11T02:55:08;32.83;;;20.30;;
15451;SDS011;7827;53.594;9.938;2023-03-11T02:57:40;31.60;;;19.30;;
15451;SDS011;7827;53.594;9.938;2023-03-11T03:00:09;33.47;;;20.83;;
15451;SDS011;7827;53.594;9.938;2023-03-11T03:02:49;31.27;;;21.07;;
15451;SDS011;7827;53.594;9.938;2023-03-11T03:05:19;30.00;;;19.73;;
15451;SDS011;7827;53.594;9.938;2023-03-11T03:07:49;30.50;;;19.40;;
15451;SDS011;7827;53.594;9.938;2023-03-11T03:10:19;31.10;;;19.73;;
15451;SDS011;7827;53.594;9.938;2023-03-11T03:12:50;31.33;;;19.60;;
15451;SDS011;7827;53.594;9.938;2023-03-11T03:15:18;32.37;;;19.37;;
15451;SDS011;7827;53.594;9.938;2023-03-11T03:17:46;31.43;;;19.77;;
15451;SDS011;7827;53.594;9.938;2023-03-11T03:20:16;28.07;;;17.90;;
15451;SDS011;7827;53.594;9.938;2023-03-11T03:22:51;27.83;;;18.03;;
15451;SDS011;7827;53.594;9.938;2023-03-11T03:25:23;28.40;;;18.93;;
15451;SDS011;7827;53.594;9.938;2023-03-11T03:27:55;30.73;;;20.00;;
15451;SDS011;7827;53.594;9.938;2023-03-11T03:30:24;32.33;;;19.80;;
15451;SDS011;7827;53.594;9.938;2023-03-11T03:32:54;27.63;;;19.23;;
15451;SDS011;7827;53.594;9.938;2023-03-11T03:35:23;27.67;;;18.20;;
15451;SDS011;7827;53.594;9.938;2023-03-11T03:37:57;30.90;;;19.77;;
15451;SDS011;7827;53.594;9.938;2023-03-11T03:40:26;30.93;;;18.73;;
15451;SDS011;7827;53.594;9.938;2023-03-11T03:42:58;28.60;;;19.30;;
15451;SDS011;7827;53.594;9.938;2023-03-11T03:45:27;26.03;;;17.97;;
15451;SDS011;7827;53.594;9.938;2023-03-11T03:47:56;29.53;;;18.73;;
15451;SDS011;7827;53.594;9.938;2023-03-11T03:50:26;26.97;;;19.40;;
15451;SDS011;7827;53.594;9.938;2023-03-11T03:52:55;28.60;;;18.37;;
15451;SDS011;7827;53.594;9.938;2023-03-11T03:55:25;28.83;;;18.90;;
15451;SDS011;7827;53.594;9.938;2023-03-11T03:57:54;28.23;;;16.80;;
15451;SDS011;7827;53.594;9.938;2023-03-11T04:00:27;26.57;;;17.90;;
15451;SDS011;7827;53.594;9.938;2023-03-11T04:02:59;26.30;;;17.40;;
15451;SDS011;7827;53.594;9.938;2023-03-11T04:05:37;26.23;;;16.80;;
15451;SDS011;7827;53.594;9.938;2023-03-11T04:08:05;27.73;;;16.60;;
15451;SDS011;7827;53.594;9.938;2023-03-11T04:10:34;23.60;;;16.77;;
15451;SDS011;7827;53.594;9.938;2023-03-11T04:13:03;25.47;;;16.93;;
15451;SDS011;7827;53.594;9.938;2023-03-11T04:15:32;23.97;;;16.57;;
15451;SDS011;7827;53.594;9.938;2023-03-11T04:18:01;26.83;;;16.93;;
15451;SDS011;7827;53.594;9.938;2023-03-11T04:20:30;28.93;;;17.43;;
15451;SDS011;7827;53.594;9.938;2023-03-11T04:22:58;25.83;;;16.33;;
15451;SDS011;7827;53.594;9.938;2023-03-11T04:25:26;24.80;;;16.73;;
15451;SDS011;7827;53.594;9.938;2023-03-11T04:27:55;24.93;;;17.23;;
15451;SDS011;7827;53.594;9.938;2023-03-11T04:30:24;25.57;;;16.33;;
15451;SDS011;7827;53.594;9.938;2023-03-11T04:32:56;25.33;;;16.47;;
15451;SDS011;7827;53.594;9.938;2023-03-11T04:35:25;22.93;;;15.43;;
15451;SDS011;7827;53.594;9.938;2023-03-11T04:37:53;23.30;;;16.43;;
15451;SDS011;7827;53.594;9.938;2023-03-11T04:40:23;25.83;;;17.00;;
15451;SDS011;7827;53.594;9.938;2023-03-11T04:42:51;28.93;;;17.03;;
15451;SDS011;7827;53.594;9.938;2023-03-11T04:45:20;22.70;;;15.47;;
15451;SDS011;7827;53.594;9.938;2023-03-11T04:47:52;23.60;;;15.60;;
15451;SDS011;7827;53.594;9.938;2023-03-11T04:50:22;26.07;;;16.17;;
15451;SDS011;7827;53.594;9.938;2023-03-11T04:52:51;25.80;;;16.40;;
15451;SDS011;7827;53.594;9.938;2023-03-11T04:55:20;23.53;;;15.27;;
15451;SDS011;7827;53.594;9.938;2023-03-11T04:57:49;22.60;;;15.40;;
15451;SDS011;7827;53.594;9.938;2023-03-11T05:00:18;25.47;;;16.13;;
15451;SDS011;7827;53.594;9.938;2023-03-11T05:02:56;23.60;;;15.43;;
15451;SDS011;7827;53.594;9.938;2023-03-11T05:05:26;21.53;;;14.57;;
15451;SDS011;7827;53.594;9.938;2023-03-11T05:07:55;21.70;;;14.13;;
15451;SDS011;7827;53.594;9.938;2023-03-11T05:10:23;23.73;;;14.90;;
15451;SDS011;7827;53.594;9.938;2023-03-11T05:12:54;21.90;;;15.03;;
15451;SDS011;7827;53.594;9.938;2023-03-11T05:15:28;23.77;;;14.50;;
15451;SDS011;7827;53.594;9.938;2023-03-11T05:17:59;20.60;;;13.80;;
15451;SDS011;7827;53.594;9.938;2023-03-11T05:20:29;21.70;;;14.20;;
15451;SDS011;7827;53.594;9.938;2023-03-11T05:22:57;18.53;;;13.53;;
15451;SDS011;7827;53.594;9.938;2023-03-11T05:25:29;21.67;;;13.40;;
15451;SDS011;7827;53.594;9.938;2023-03-11T05:27:57;18.30;;;11.70;;
15451;SDS011;7827;53.594;9.938;2023-03-11T05:30:26;22.23;;;15.53;;
15451;SDS011;7827;53.594;9.938;2023-03-11T05:32:56;21.17;;;14.33;;
15451;SDS011;7827;53.594;9.938;2023-03-11T05:35:24;21.33;;;13.57;;
15451;SDS011;7827;53.594;9.938;2023-03-11T05:37:54;20.23;;;14.07;;
15451;SDS011;7827;53.594;9.938;2023-03-11T05:40:26;21.40;;;14.43;;
15451;SDS011;7827;53.594;9.938;2023-03-11T05:42:54;25.33;;;15.40;;
15451;SDS011;7827;53.594;9.938;2023-03-11T05:45:24;26.57;;;14.87;;
15451;SDS011;7827;53.594;9.938;2023-03-11T05:47:55;24.23;;;15.30;;
15451;SDS011;7827;53.594;9.938;2023-03-11T05:50:23;23.40;;;15.87;;
15451;SDS011;7827;53.594;9.938;2023-03-11T05:52:52;24.07;;;14.83;;
15451;SDS011;7827;53.594;9.938;2023-03-11T05:55:22;23.20;;;15.43;;
15451;SDS011;7827;53.594;9.938;2023-03-11T05:57:51;25.20;;;14.77;;
15451;SDS011;7827;53.594;9.938;2023-03-11T06:00:20;23.17;;;14.47;;
15451;SDS011;7827;53.594;9.938;2023-03-11T06:02:51;27.03;;;15.73;;
15451;SDS011;7827;53.594;9.938;2023-03-11T06:05:20;26.23;;;15.83;;
15451;SDS011;7827;53.594;9.938;2023-03-11T06:07:50;25.27;;;15.27;;
15451;SDS011;7827;53.594;9.938;2023-03-11T06:10:20;27.20;;;15.80;;
15451;SDS011;7827;53.594;9.938;2023-03-11T06:12:50;23.90;;;15.73;;
15451;SDS011;7827;53.594;9.938;2023-03-11T06:15:28;24.90;;;16.13;;
15451;SDS011;7827;53.594;9.938;2023-03-11T06:17:57;25.00;;;16.33;;
15451;SDS011;7827;53.594;9.938;2023-03-11T06:20:25;25.60;;;17.00;;
15451;SDS011;7827;53.594;9.938;2023-03-11T06:22:55;23.80;;;15.33;;
15451;SDS011;7827;53.594;9.938;2023-03-11T06:25:27;23.80;;;16.10;;
15451;SDS011;7827;53.594;9.938;2023-03-11T06:27:56;27.83;;;15.80;;
15451;SDS011;7827;53.594;9.938;2023-03-11T06:30:24;26.07;;;15.77;;
15451;SDS011;7827;53.594;9.938;2023-03-11T06:33:13;21.87;;;15.23;;
15451;SDS011;7827;53.594;9.938;2023-03-11T06:35:42;30.33;;;15.70;;
15451;SDS011;7827;53.594;9.938;2023-03-11T06:38:10;25.20;;;16.43;;
15451;SDS011;7827;53.594;9.938;2023-03-11T06:40:40;22.63;;;13.87;;
15451;SDS011;7827;53.594;9.938;2023-03-11T06:43:10;23.53;;;15.73;;
15451;SDS011;7827;53.594;9.938;2023-03-11T06:45:40;24.83;;;15.27;;
15451;SDS011;7827;53.594;9.938;2023-03-11T06:48:09;22.87;;;15.67;;
15451;SDS011;7827;53.594;9.938;2023-03-11T06:50:38;21.03;;;14.17;;
15451;SDS011;7827;53.594;9.938;2023-03-11T06:53:07;24.07;;;14.93;;
15451;SDS011;7827;53.594;9.938;2023-03-11T06:55:37;21.03;;;14.30;;
15451;SDS011;7827;53.594;9.938;2023-03-11T06:58:06;22.23;;;14.60;;
15451;SDS011;7827;53.594;9.938;2023-03-11T07:00:35;30.33;;;17.37;;
15451;SDS011;7827;53.594;9.938;2023-03-11T07:03:03;27.00;;;16.30;;
15451;SDS011;7827;53.594;9.938;2023-03-11T07:05:32;23.67;;;14.70;;
15451;SDS011;7827;53.594;9.938;2023-03-11T07:08:04;23.30;;;17.60;;
15451;SDS011;7827;53.594;9.938;2023-03-11T07:10:33;23.97;;;14.73;;
15451;SDS011;7827;53.594;9.938;2023-03-11T07:13:02;22.43;;;15.10;;
15451;SDS011;7827;53.594;9.938;2023-03-11T07:15:31;22.20;;;14.43;;
15451;SDS011;7827;53.594;9.938;2023-03-11T07:18:00;23.60;;;15.43;;
15451;SDS011;7827;53.594;9.938;2023-03-11T07:20:29;22.53;;;13.77;;
15451;SDS011;7827;53.594;9.938;2023-03-11T07:22:57;19.87;;;14.83;;
15451;SDS011;7827;53.594;9.938;2023-03-11T07:25:25;21.60;;;14.37;;
15451;SDS011;7827;53.594;9.938;2023-03-11T07:27:54;20.13;;;14.40;;
15451;SDS011;7827;53.594;9.938;2023-03-11T07:30:22;20.87;;;14.17;;
15451;SDS011;7827;53.594;9.938;2023-03-11T07:32:52;19.80;;;13.37;;
15451;SDS011;7827;53.594;9.938;2023-03-11T07:35:20;21.00;;;14.17;;
15451;SDS011;7827;53.594;9.938;2023-03-11T07:37:48;20.93;;;14.10;;
15451;SDS011;7827;53.594;9.938;2023-03-11T07:40:17;19.23;;;13.37;;
15451;SDS011;7827;53.594;9.938;2023-03-11T07:42:45;19.80;;;13.60;;
15451;SDS011;7827;53.594;9.938;2023-03-11T07:45:15;19.97;;;13.67;;
15451;SDS011;7827;53.594;9.938;2023-03-11T07:47:44;21.93;;;13.47;;
15451;SDS011;7827;53.594;9.938;2023-03-11T07:50:14;20.00;;;13.53;;
15451;SDS011;7827;53.594;9.938;2023-03-11T07:52:43;18.63;;;13.60;;
15451;SDS011;7827;53.594;9.938;2023-03-11T07:55:12;19.27;;;12.60;;
15451;SDS011;7827;53.594;9.938;2023-03-11T07:57:40;17.63;;;12.70;;
15451;SDS011;7827;53.594;9.938;2023-03-11T08:00:09;19.77;;;12.30;;
15451;SDS011;7827;53.594;9.938;2023-03-11T08:02:39;19.33;;;12.17;;
15451;SDS011;7827;53.594;9.938;2023-03-11T08:05:08;20.53;;;12.23;;
15451;SDS011;7827;53.594;9.938;2023-03-11T08:07:38;15.53;;;10.83;;
15451;SDS011;7827;53.594;9.938;2023-03-11T08:10:07;17.90;;;11.83;;
15451;SDS011;7827;53.594;9.938;2023-03-11T08:12:37;16.13;;;11.27;;
15451;SDS011;7827;53.594;9.938;2023-03-11T08:15:06;18.27;;;12.00;;
15451;SDS011;7827;53.594;9.938;2023-03-11T08:17:36;17.10;;;10.50;;
15451;SDS011;7827;53.594;9.938;2023-03-11T08:20:05;14.90;;;10.50;;
15451;SDS011;7827;53.594;9.938;2023-03-11T08:22:35;17.73;;;11.27;;
15451;SDS011;7827;53.594;9.938;2023-03-11T08:25:22;16.00;;;11.33;;
15451;SDS011;7827;53.594;9.938;2023-03-11T08:27:51;14.80;;;9.80;;
15451;SDS011;7827;53.594;9.938;2023-03-11T08:30:19;17.47;;;10.00;;
15451;SDS011;7827;53.594;9.938;2023-03-11T08:32:48;11.87;;;8.40;;
15451;SDS011;7827;53.594;9.938;2023-03-11T08:35:17;14.00;;;9.47;;
15451;SDS011;7827;53.594;9.938;2023-03-11T08:37:46;13.43;;;8.50;;
15451;SDS011;7827;53.594;9.938;2023-03-11T08:40:14;10.93;;;8.50;;
15451;SDS011;7827;53.594;9.938;2023-03-11T08:42:44;13.30;;;8.37;;
15451;SDS011;7827;53.594;9.938;2023-03-11T08:45:13;11.93;;;8.70;;
15451;SDS011;7827;53.594;9.938;2023-03-11T08:47:41;12.87;;;8.23;;
15451;SDS011;7827;53.594;9.938;2023-03-11T08:50:11;10.77;;;7.27;;
15451;SDS011;7827;53.594;9.938;2023-03-11T08:52:41;13.30;;;7.60;;
15451;SDS011;7827;53.594;9.938;2023-03-11T08:55:11;12.47;;;7.60;;
15451;SDS011;7827;53.594;9.938;2023-03-11T08:57:42;14.07;;;7.20;;
15451;SDS011;7827;53.594;9.938;2023-03-11T09:00:12;10.67;;;7.50;;
15451;SDS011;7827;53.594;9.938;2023-03-11T09:02:41;13.20;;;6.87;;
15451;SDS011;7827;53.594;9.938;2023-03-11T09:05:10;10.43;;;6.47;;
15451;SDS011;7827;53.594;9.938;2023-03-11T09:07:38;9.30;;;5.97;;
15451;SDS011;7827;53.594;9.938;2023-03-11T09:10:07;7.87;;;6.13;;
15451;SDS011;7827;53.594;9.938;2023-03-11T09:12:38;10.27;;;6.43;;
15451;SDS011;7827;53.594;9.938;2023-03-11T09:15:08;8.90;;;6.20;;
15451;SDS011;7827;53.594;9.938;2023-03-11T09:17:37;11.27;;;6.90;;
15451;SDS011;7827;53.594;9.938;2023-03-11T09:20:06;13.20;;;6.50;;
15451;SDS011;7827;53.594;9.938;2023-03-11T09:22:35;9.87;;;5.50;;
15451;SDS011;7827;53.594;9.938;2023-03-11T09:25:05;9.67;;;5.67;;
15451;SDS011;7827;53.594;9.938;2023-03-11T09:27:35;7.90;;;5.70;;
15451;SDS011;7827;53.594;9.938;2023-03-11T09:30:05;7.40;;;5.50;;
15451;SDS011;7827;53.594;9.938;2023-03-11T09:32:36;9.80;;;5.90;;
15451;SDS011;7827;53.594;9.938;2023-03-11T09:35:05;10.23;;;5.53;;
15451;SDS011;7827;53.594;9.938;2023-03-11T09:37:33;7.30;;;5.37;;
15451;SDS011;7827;53.594;9.938;2023-03-11T09:40:02;8.70;;;5.00;;
15451;SDS011;7827;53.594;9.938;2023-03-11T09:42:32;7.10;;;5.17;;
15451;SDS011;7827;53.594;9.938;2023-03-11T09:45:12;6.60;;;4.10;;
15451;SDS011;7827;53.594;9.938;2023-03-11T09:47:48;7.73;;;3.93;;
15451;SDS011;7827;53.594;9.938;2023-03-11T09:50:36;6.73;;;4.43;;
15451;SDS011;7827;53.594;9.938;2023-03-11T09:53:18;6.37;;;4.50;;
15451;SDS011;7827;53.594;9.938;2023-03-11T09:55:57;10.37;;;4.47;;
15451;SDS011;7827;53.594;9.938;2023-03-11T09:58:30;8.07;;;4.50;;
15451;SDS011;7827;53.594;9.938;2023-03-11T10:01:10;7.33;;;4.60;;
15451;SDS011;7827;53.594;9.938;2023-03-11T10:03:45;9.13;;;4.90;;
15451;SDS011;7827;53.594;9.938;2023-03-11T10:06:16;10.00;;;5.67;;
15451;SDS011;7827;53.594;9.938;2023-03-11T10:08:51;7.53;;;5.10;;
15451;SDS011;7827;53.594;9.938;2023-03-11T10:11:39;7.43;;;5.53;;
15451;SDS011;7827;53.594;9.938;2023-03-11T10:14:25;10.63;;;5.47;;
15451;SDS011;7827;53.594;9.938;2023-03-11T10:17:19;8.33;;;5.07;;
15451;SDS011;7827;53.594;9.938;2023-03-11T10:20:08;8.20;;;4.53;;
15451;SDS011;7827;53.594;9.938;2023-03-11T10:22:45;10.47;;;4.37;;
15451;SDS011;7827;53.594;9.938;2023-03-11T10:25:25;9.60;;;4.10;;
15451;SDS011;7827;53.594;9.938;2023-03-11T10:27:59;6.80;;;4.70;;
15451;SDS011;7827;53.594;9.938;2023-03-11T10:30:34;8.47;;;4.43;;
15451;SDS011;7827;53.594;9.938;2023-03-11T10:33:13;10.27;;;4.50;;
15451;SDS011;7827;53.594;9.938;2023-03-11T10:35:50;5.77;;;4.27;;
15451;SDS011;7827;53.594;9.938;2023-03-11T10:38:22;9.30;;;4.40;;
15451;SDS011;7827;53.594;9.938;2023-03-11T10:40:54;5.07;;;3.93;;
15451;SDS011;7827;53.594;9.938;2023-03-11T10:43:27;10.63;;;4.67;;
15451;SDS011;7827;53.594;9.938;2023-03-11T10:46:02;7.70;;;4.57;;
15451;SDS011;7827;53.594;9.938;2023-03-11T10:48:42;9.57;;;4.30;;
15451;SDS011;7827;53.594;9.938;2023-03-11T10:51:11;5.40;;;4.40;;
15451;SDS011;7827;53.594;9.938;2023-03-11T10:53:49;12.20;;;5.20;;
15451;SDS011;7827;53.594;9.938;2023-03-11T10:56:25;7.40;;;4.40;;
15451;SDS011;7827;53.594;9.938;2023-03-11T10:58:58;9.17;;;4.57;;
15451;SDS011;7827;53.594;9.938;2023-03-11T11:01:28;7.30;;;5.00;;
15451;SDS011;7827;53.594;9.938;2023-03-11T11:03:59;8.40;;;4.80;;
15451;SDS011;7827;53.594;9.938;2023-03-11T11:06:30;6.57;;;4.03;;
15451;SDS011;7827;53.594;9.938;2023-03-11T11:09:12;12.83;;;4.43;;
15451;SDS011;7827;53.594;9.938;2023-03-11T11:11:45;14.20;;;4.90;;
15451;SDS011;7827;53.594;9.938;2023-03-11T11:14:45;6.90;;;4.27;;
15451;SDS011;7827;53.594;9.938;2023-03-11T11:17:17;5.27;;;3.63;;
15451;SDS011;7827;53.594;9.938;2023-03-11T11:19:52;5.03;;;3.77;;
15451;SDS011;7827;53.594;9.938;2023-03-11T11:22:23;9.73;;;4.60;;
15451;SDS011;7827;53.594;9.938;2023-03-11T11:24:53;7.00;;;4.30;;
15451;SDS011;7827;53.594;9.938;2023-03-11T11:27:24;11.10;;;4.53;;
15451;SDS011;7827;53.594;9.938;2023-03-11T11:30:02;8.30;;;4.27;;
15451;SDS011;7827;53.594;9.938;2023-03-11T11:32:42;8.20;;;4.13;;
15451;SDS011;7827;53.594;9.938;2023-03-11T11:35:13;10.43;;;4.20;;
15451;SDS011;7827;53.594;9.938;2023-03-11T11:37:45;6.67;;;3.60;;
15451;SDS011;7827;53.594;9.938;2023-03-11T11:40:18;9.47;;;3.53;;
15451;SDS011;7827;53.594;9.938;2023-03-11T11:42:53;8.27;;;3.43;;
15451;SDS011;7827;53.594;9.938;2023-03-11T11:45:32;9.57;;;3.50;;
15451;SDS011;7827;53.594;9.938;2023-03-11T11:48:07;9.40;;;3.80;;
15451;SDS011;7827;53.594;9.938;2023-03-11T11:50:50;5.67;;;2.30;;
15451;SDS011;7827;53.594;9.938;2023-03-11T11:53:24;8.07;;;3.20;;
15451;SDS011;7827;53.594;9.938;2023-03-11T11:56:01;9.00;;;3.43;;
15451;SDS011;7827;53.594;9.938;2023-03-11T11:58:30;5.97;;;2.80;;
15451;SDS011;7827;53.594;9.938;2023-03-11T12:01:03;3.83;;;2.60;;
15451;SDS011;7827;53.594;9.938;2023-03-11T12:03:55;5.83;;;2.67;;
15451;SDS011;7827;53.594;9.938;2023-03-11T12:06:51;5.47;;;2.20;;
15451;SDS011;7827;53.594;9.938;2023-03-11T12:09:32;6.80;;;2.17;;
15451;SDS011;7827;53.594;9.938;2023-03-11T12:12:15;9.83;;;2.13;;
15451;SDS011;7827;53.594;9.938;2023-03-11T12:14:56;7.73;;;2.10;;
15451;SDS011;7827;53.594;9.938;2023-03-11T12:17:33;9.17;;;2.20;;
15451;SDS011;7827;53.594;9.938;2023-03-11T12:20:07;7.73;;;2.00;;
15451;SDS011;7827;53.594;9.938;2023-03-11T12:22:51;3.93;;;2.00;;
15451;SDS011;7827;53.594;9.938;2023-03-11T12:25:32;6.03;;;2.07;;
15451;SDS011;7827;53.594;9.938;2023-03-11T12:28:15;2.03;;;1.40;;
15451;SDS011;7827;53.594;9.938;2023-03-11T12:30:49;3.13;;;1.70;;
15451;SDS011;7827;53.594;9.938;2023-03-11T12:33:23;3.87;;;1.50;;
15451;SDS011;7827;53.594;9.938;2023-03-11T12:35:57;3.47;;;1.70;;
15451;SDS011;7827;53.594;9.938;2023-03-11T12:38:29;6.13;;;1.60;;
15451;SDS011;7827;53.594;9.938;2023-03-11T12:41:03;3.57;;;1.70;;
15451;SDS011;7827;53.594;9.938;2023-03-11T12:49:36;11.70;;;1.90;;
15451;SDS011;7827;53.594;9.938;2023-03-11T12:52:18;2.60;;;1.50;;
15451;SDS011;7827;53.594;9.938;2023-03-11T12:57:58;5.17;;;1.80;;
15451;SDS011;7827;53.594;9.938;2023-03-11T13:00:45;4.53;;;2.07;;
15451;SDS011;7827;53.594;9.938;2023-03-11T13:09:23;3.20;;;1.77;;
15451;SDS011;7827;53.594;9.938;2023-03-11T13:11:53;8.03;;;2.37;;
15451;SDS011;7827;53.594;9.938;2023-03-11T13:14:24;7.20;;;2.10;;
15451;SDS011;7827;53.594;9.938;2023-03-11T13:16:55;6.13;;;2.50;;
15451;SDS011;7827;53.594;9.938;2023-03-11T13:25:27;5.20;;;2.47;;
15451;SDS011;7827;53.594;9.938;2023-03-11T13:28:00;8.00;;;2.30;;
15451;SDS011;7827;53.594;9.938;2023-03-11T13:30:40;6.53;;;1.97;;
15451;SDS011;7827;53.594;9.938;2023-03-11T13:33:22;5.10;;;1.90;;
15451;SDS011;7827;53.594;9.938;2023-03-11T13:36:14;3.27;;;2.00;;
15451;SDS011;7827;53.594;9.938;2023-03-11T13:39:07;3.53;;;1.80;;
15451;SDS011;7827;53.594;9.938;2023-03-11T13:41:53;9.77;;;1.80;;
15451;SDS011;7827;53.594;9.938;2023-03-11T13:44:28;4.70;;;1.93;;
15451;SDS011;7827;53.594;9.938;2023-03-11T13:47:02;3.83;;;1.73;;
15451;SDS011;7827;53.594;9.938;2023-03-11T13:49:41;5.50;;;1.80;;
15451;SDS011;7827;53.594;9.938;2023-03-11T13:52:17;7.17;;;1.77;;
15451;SDS011;7827;53.594;9.938;2023-03-11T13:54:54;3.20;;;1.70;;
15451;SDS011;7827;53.594;9.938;2023-03-11T13:57:29;4.73;;;1.87;;
15451;SDS011;7827;53.594;9.938;2023-03-11T14:00:09;7.13;;;1.87;;
15451;SDS011;7827;53.594;9.938;2023-03-11T14:02:46;3.50;;;1.40;;
15451;SDS011;7827;53.594;9.938;2023-03-11T14:05:21;6.07;;;1.67;;
15451;SDS011;7827;53.594;9.938;2023-03-11T14:07:52;5.67;;;1.57;;
15451;SDS011;7827;53.594;9.938;2023-03-11T14:10:27;2.57;;;1.40;;
15451;SDS011;7827;53.594;9.938;2023-03-11T14:13:03;1.80;;;1.50;;
15451;SDS011;7827;53.594;9.938;2023-03-11T14:15:44;5.13;;;2.00;;
15451;SDS011;7827;53.594;9.938;2023-03-11T14:18:29;3.77;;;1.67;;
15451;SDS011;7827;53.594;9.938;2023-03-11T14:21:01;1.80;;;1.30;;
15451;SDS011;7827;53.594;9.938;2023-03-11T14:23:34;3.43;;;1.50;;
15451;SDS011;7827;53.594;9.938;2023-03-11T14:26:08;4.53;;;1.60;;
15451;SDS011;7827;53.594;9.938;2023-03-11T14:28:42;3.97;;;1.63;;
15451;SDS011;7827;53.594;9.938;2023-03-11T14:31:23;4.10;;;1.60;;
15451;SDS011;7827;53.594;9.938;2023-03-11T14:33:58;3.53;;;2.00;;
15451;SDS011;7827;53.594;9.938;2023-03-11T14:36:41;3.53;;;1.40;;
15451;SDS011;7827;53.594;9.938;2023-03-11T14:39:21;9.53;;;3.03;;
15451;SDS011;7827;53.594;9.938;2023-03-11T14:41:58;4.37;;;1.80;;
15451;SDS011;7827;53.594;9.938;2023-03-11T14:44:33;2.17;;;1.50;;
15451;SDS011;7827;53.594;9.938;2023-03-11T14:47:13;3.17;;;1.73;;
15451;SDS011;7827;53.594;9.938;2023-03-11T14:49:49;6.63;;;1.73;;
15451;SDS011;7827;53.594;9.938;2023-03-11T14:52:20;5.70;;;2.07;;
15451;SDS011;7827;53.594;9.938;2023-03-11T14:55:03;4.83;;;1.80;;
15451;SDS011;7827;53.594;9.938;2023-03-11T14:57:40;5.15;;;1.90;;
15451;SDS011;7827;53.594;9.938;2023-03-11T15:00:14;3.43;;;1.83;;
15451;SDS011;7827;53.594;9.938;2023-03-11T15:02:54;2.57;;;1.60;;
15451;SDS011;7827;53.594;9.938;2023-03-11T15:05:32;6.63;;;1.80;;
15451;SDS011;7827;53.594;9.938;2023-03-11T15:08:08;4.90;;;1.87;;
15451;SDS011;7827;53.594;9.938;2023-03-11T15:10:37;7.00;;;1.53;;
15451;SDS011;7827;53.594;9.938;2023-03-11T15:13:07;4.20;;;2.10;;
15451;SDS011;7827;53.594;9.938;2023-03-11T15:15:41;3.73;;;1.53;;
15451;SDS011;7827;53.594;9.938;2023-03-11T15:18:18;5.20;;;1.73;;
15451;SDS011;7827;53.594;9.938;2023-03-11T15:21:02;2.80;;;1.80;;
15451;SDS011;7827;53.594;9.938;2023-03-11T15:23:38;7.57;;;1.80;;
15451;SDS011;7827;53.594;9.938;2023-03-11T15:26:17;4.63;;;1.97;;
15451;SDS011;7827;53.594;9.938;2023-03-11T15:28:54;4.37;;;2.00;;
15451;SDS011;7827;53.594;9.938;2023-03-11T15:31:28;3.53;;;1.77;;
15451;SDS011;7827;53.594;9.938;2023-03-11T15:34:08;3.97;;;2.10;;
15451;SDS011;7827;53.594;9.938;2023-03-11T15:36:54;3.57;;;1.80;;
15451;SDS011;7827;53.594;9.938;2023-03-11T15:39:40;3.27;;;1.80;;
15451;SDS011;7827;53.594;9.938;2023-03-11T15:42:13;3.47;;;1.83;;